createdAt,value
2019-02-26T00:04:05.477Z,4.65
2019-02-26T00:09:10.503Z,7.90
2019-02-26T00:14:17.533Z,8.07
2019-02-26T00:19:17.357Z,6.50
2019-02-26T00:24:20.737Z,7.23
2019-02-26T00:29:25.352Z,3.20
2019-02-26T00:34:27.624Z,6.13
2019-02-26T00:39:31.538Z,6.27
2019-02-26T00:44:35.284Z,4.87
2019-02-26T00:49:37.987Z,7.53
2019-02-26T00:54:41.436Z,5.17
2019-02-26T00:59:47.992Z,4.53
2019-02-26T01:04:50.992Z,4.40
2019-02-26T01:09:54.658Z,6.67
2019-02-26T01:14:56.454Z,5.07
2019-02-26T01:20:01.106Z,6.17
2019-02-26T01:25:03.501Z,5.23
2019-02-26T01:30:08.365Z,3.40
2019-02-26T01:35:12.919Z,7.08
2019-02-26T01:40:18.392Z,3.27
2019-02-26T01:45:19.641Z,3.67
2019-02-26T01:50:22.508Z,6.70
2019-02-26T01:55:27.701Z,9.27
2019-02-26T02:00:29.393Z,5.80
2019-02-26T02:05:32.884Z,2.67
2019-02-26T02:10:36.333Z,4.13
2019-02-26T02:15:40.520Z,5.10
2019-02-26T02:20:43.093Z,6.07
2019-02-26T02:25:46.610Z,3.93
2019-02-26T02:30:50.096Z,2.80
2019-02-26T02:35:53.462Z,3.63
2019-02-26T02:40:56.818Z,2.83
2019-02-26T02:46:01.357Z,5.13
2019-02-26T02:51:05.458Z,6.83
2019-02-26T02:56:09.859Z,3.37
2019-02-26T03:01:10.536Z,8.70
2019-02-26T03:06:13.985Z,4.07
2019-02-26T03:11:17.343Z,2.40
2019-02-26T03:16:23.923Z,3.30
2019-02-26T03:21:27.768Z,1.90
2019-02-26T03:26:28.772Z,3.60
2019-02-26T03:31:34.839Z,2.33
2019-02-26T03:36:38.260Z,4.40
2019-02-26T03:41:39.112Z,6.37
2019-02-26T03:46:42.602Z,5.73
2019-02-26T03:51:46.050Z,4.43
2019-02-26T03:56:49.440Z,3.27
2019-02-26T04:01:52.836Z,4.43
2019-02-26T04:06:58.466Z,6.40
2019-02-26T04:11:59.620Z,4.83
2019-02-26T04:17:04.026Z,3.50
2019-02-26T04:22:18.817Z,3.90
2019-02-26T04:27:36.327Z,2.77
2019-02-26T04:32:49.051Z,4.40
2019-02-26T04:38:04.097Z,4.10
2019-02-26T04:43:27.820Z,3.77
2019-02-26T04:48:34.234Z,7.20
2019-02-26T04:53:36.478Z,2.75
2019-02-26T04:58:41.894Z,3.00
2019-02-26T05:03:42.201Z,2.57
2019-02-26T05:08:46.288Z,4.53
2019-02-26T05:13:49.753Z,9.70
2019-02-26T05:18:54.923Z,4.57
2019-02-26T05:23:57.637Z,4.00
2019-02-26T05:29:00.346Z,6.57
2019-02-26T05:34:03.800Z,6.27
2019-02-26T05:39:08.439Z,4.70
2019-02-26T05:44:11.905Z,9.00
2019-02-26T05:49:17.059Z,4.57
2019-02-26T05:54:21.590Z,3.73
2019-02-26T05:59:22.480Z,9.77
2019-02-26T06:04:25.921Z,8.10
2019-02-26T06:09:31.191Z,10.47
2019-02-26T06:14:33.773Z,5.17
2019-02-26T06:19:45.126Z,4.17
2019-02-26T06:24:48.244Z,4.20
2019-02-26T06:29:55.048Z,5.23
2019-02-26T06:34:55.198Z,3.20
2019-02-26T06:40:00.625Z,3.67
2019-02-26T06:45:04.009Z,7.00
2019-02-26T06:50:08.192Z,8.07
2019-02-26T06:55:10.052Z,7.03
2019-02-26T07:00:16.236Z,7.93
2019-02-26T07:05:17.803Z,8.55
2019-02-26T07:10:24.287Z,8.03
2019-02-26T07:15:28.736Z,7.47
2019-02-26T07:20:33.993Z,7.07
2019-02-26T07:25:33.728Z,6.83
2019-02-26T07:30:37.452Z,7.10
2019-02-26T07:35:39.714Z,7.60
2019-02-26T07:40:42.189Z,8.43
2019-02-26T07:45:45.576Z,10.77
2019-02-26T07:50:50.709Z,7.45
2019-02-26T07:55:52.507Z,4.70
2019-02-26T08:00:55.901Z,5.73
2019-02-26T08:06:00.934Z,8.10
2019-02-26T08:11:02.786Z,7.20
2019-02-26T08:16:06.283Z,7.83
2019-02-26T08:21:09.696Z,6.40
2019-02-26T08:26:15.001Z,4.47
2019-02-26T08:31:18.511Z,12.07
2019-02-26T08:36:20.352Z,7.60
2019-02-26T08:41:23.907Z,9.87
2019-02-26T08:46:27.321Z,12.43
2019-02-26T08:51:30.750Z,12.10
2019-02-26T08:56:36.285Z,7.57
2019-02-26T09:01:37.688Z,5.30
2019-02-26T09:06:41.208Z,5.73
2019-02-26T09:11:44.773Z,6.37
2019-02-26T09:16:51.957Z,5.93
2019-02-26T09:21:52.486Z,4.50
2019-02-26T09:26:57.388Z,6.93
2019-02-26T09:31:58.829Z,8.67
2019-02-26T09:37:03.520Z,8.50
2019-02-26T09:42:06.552Z,7.30
2019-02-26T09:47:09.386Z,11.03
2019-02-26T09:52:12.915Z,6.53
2019-02-26T09:57:18.104Z,9.17
2019-02-26T10:02:21.864Z,9.33
2019-02-26T10:07:23.209Z,13.93
2019-02-26T10:12:27.995Z,7.27
2019-02-26T10:17:30.161Z,9.43
2019-02-26T10:22:35.685Z,8.70
2019-02-26T10:27:38.802Z,9.48
2019-02-26T10:32:40.544Z,12.97
2019-02-26T10:37:46.037Z,9.63
2019-02-26T10:42:49.478Z,10.75
2019-02-26T10:47:54.190Z,9.10
2019-02-26T10:53:01.403Z,8.60
2019-02-26T10:58:04.719Z,10.73
2019-02-26T11:03:03.753Z,9.53
2019-02-26T11:08:09.293Z,11.37
2019-02-26T11:13:13.023Z,10.83
2019-02-26T11:18:15.131Z,10.07
2019-02-26T11:23:17.836Z,11.80
2019-02-26T11:28:21.351Z,8.87
2019-02-26T11:33:24.923Z,9.43
2019-02-26T11:38:28.554Z,9.27
2019-02-26T11:43:31.955Z,8.17
2019-02-26T11:48:35.457Z,9.23
2019-02-26T11:53:38.988Z,11.47
2019-02-26T11:58:42.384Z,9.70
2019-02-26T12:03:45.880Z,7.47
2019-02-26T12:08:50.076Z,10.57
2019-02-26T12:13:53.223Z,8.60
2019-02-26T12:18:58.674Z,9.33
2019-02-26T12:24:03.203Z,9.07
2019-02-26T12:29:04.505Z,6.63
2019-02-26T12:34:09.164Z,7.17
2019-02-26T12:39:11.122Z,10.40
2019-02-26T12:44:16.198Z,6.80
2019-02-26T12:49:22.399Z,6.90
2019-02-26T12:54:22.564Z,6.30
2019-02-26T12:59:26.050Z,6.53
2019-02-26T13:04:29.477Z,4.97
2019-02-26T13:09:32.891Z,7.00
2019-02-26T13:14:36.388Z,5.63
2019-02-26T13:19:39.791Z,4.60
2019-02-26T13:24:43.200Z,5.53
2019-02-26T13:29:53.447Z,3.57
2019-02-26T13:34:52.513Z,3.17
2019-02-26T13:39:53.586Z,5.87
2019-02-26T13:44:57.086Z,3.47
2019-02-26T13:50:00.574Z,1.10
2019-02-26T13:55:04.212Z,2.20
2019-02-26T14:00:08.475Z,3.70
2019-02-26T14:05:12.039Z,1.77
2019-02-26T14:10:16.079Z,1.77
2019-02-26T14:15:22.030Z,2.60
2019-02-26T14:20:25.489Z,2.47
2019-02-26T14:25:28.907Z,2.23
2019-02-26T14:30:32.404Z,3.77
2019-02-26T14:35:35.901Z,1.93
2019-02-26T14:40:39.351Z,3.53
2019-02-26T14:45:42.810Z,5.03
2019-02-26T14:50:46.250Z,2.67
2019-02-26T14:55:49.722Z,1.30
2019-02-26T15:00:57.735Z,4.77
2019-02-26T15:05:56.749Z,1.70
2019-02-26T15:11:00.228Z,1.40
2019-02-26T15:16:03.658Z,2.70
2019-02-26T15:21:07.197Z,2.97
2019-02-26T15:26:10.633Z,3.80
2019-02-26T15:31:14.095Z,5.83
2019-02-26T15:36:17.529Z,1.50
2019-02-26T15:41:21.083Z,1.50
2019-02-26T15:46:24.561Z,4.13
2019-02-26T15:51:28.007Z,2.07
2019-02-26T15:56:31.531Z,3.30
2019-02-26T16:01:34.963Z,1.97
2019-02-26T16:06:38.500Z,5.13
2019-02-26T16:11:41.920Z,6.70
2019-02-26T16:16:45.384Z,19.40
2019-02-26T16:21:48.864Z,7.33
2019-02-26T16:26:55.268Z,2.73
2019-02-26T16:31:58.820Z,3.40
2019-02-26T16:37:03.278Z,1.40
2019-02-26T16:42:06.198Z,6.13
2019-02-26T16:47:09.818Z,2.30
2019-02-26T16:52:13.320Z,2.97
2019-02-26T16:57:16.818Z,15.57
2019-02-26T17:02:20.326Z,7.27
2019-02-26T17:07:23.782Z,5.77
2019-02-26T17:12:29.166Z,9.27
2019-02-26T17:17:30.829Z,5.83
2019-02-26T17:22:34.378Z,4.20
2019-02-26T17:27:38.940Z,10.17
2019-02-26T17:32:41.405Z,5.13
2019-02-26T17:37:44.862Z,6.37
2019-02-26T17:42:48.848Z,6.80
2019-02-26T17:47:51.784Z,6.77
2019-02-26T17:58:01.941Z,9.70
2019-02-26T18:03:07.241Z,12.33
2019-02-26T18:08:08.876Z,9.77
2019-02-26T18:13:12.391Z,18.97
2019-02-26T18:18:15.886Z,9.33
2019-02-26T18:23:19.495Z,14.00
2019-02-26T18:28:23.049Z,9.10
2019-02-26T18:33:26.645Z,8.73
2019-02-26T18:38:30.136Z,9.47
2019-02-26T18:43:33.781Z,15.17
2019-02-26T18:48:37.294Z,15.03
2019-02-26T18:53:41.818Z,21.20
2019-02-26T18:58:46.661Z,19.77
2019-02-26T19:03:48.951Z,14.97
2019-02-26T19:08:52.407Z,13.57
2019-02-26T19:13:55.907Z,16.93
2019-02-26T19:19:00.425Z,16.65
2019-02-26T19:24:04.632Z,10.20
2019-02-26T19:29:07.486Z,6.47
2019-02-26T19:34:10.959Z,5.33
2019-02-26T19:39:14.604Z,19.17
2019-02-26T19:44:18.150Z,12.77
2019-02-26T19:49:21.730Z,17.87
2019-02-26T19:54:25.299Z,13.90
2019-02-26T19:59:28.740Z,15.93
2019-02-26T20:04:32.232Z,16.63
2019-02-26T20:09:38.608Z,13.47
2019-02-26T20:14:39.392Z,9.67
2019-02-26T20:19:42.879Z,8.47
2019-02-26T20:24:46.484Z,9.70
2019-02-26T20:29:50.792Z,21.53
2019-02-26T20:34:54.404Z,13.87
2019-02-26T20:39:57.828Z,9.07
2019-02-26T20:45:01.436Z,14.73
2019-02-26T20:50:05.209Z,11.53
2019-02-26T20:55:10.589Z,12.93
2019-02-26T21:00:15.600Z,19.57
2019-02-26T21:05:19.231Z,12.07
2019-02-26T21:10:22.661Z,11.13
2019-02-26T21:15:26.148Z,10.23
2019-02-26T21:20:29.552Z,13.90
2019-02-26T21:25:33.002Z,9.00
2019-02-26T21:30:36.468Z,8.50
2019-02-26T21:35:39.873Z,10.70
2019-02-26T21:40:43.337Z,9.13
2019-02-26T21:45:49.105Z,7.77
2019-02-26T21:50:50.195Z,9.47
2019-02-26T21:55:55.557Z,7.93
2019-02-26T22:00:57.122Z,7.03
2019-02-26T22:06:05.274Z,4.47
2019-02-26T22:11:04.037Z,9.57
2019-02-26T22:16:07.621Z,8.53
2019-02-26T22:21:11.024Z,8.00
2019-02-26T22:26:14.435Z,13.67
2019-02-26T22:31:17.874Z,12.40
2019-02-26T22:36:21.272Z,10.43
2019-02-26T22:41:24.689Z,7.97
2019-02-26T22:46:28.227Z,8.27
2019-02-26T22:51:31.657Z,12.37
2019-02-26T22:56:35.105Z,7.53
2019-02-26T23:01:42.936Z,5.93
2019-02-26T23:06:46.454Z,7.30
2019-02-26T23:11:49.957Z,7.77
2019-02-26T23:16:53.372Z,4.97
2019-02-26T23:21:56.893Z,7.50
2019-02-26T23:27:00.496Z,4.87
2019-02-26T23:32:06.133Z,6.73
2019-02-26T23:37:08.480Z,6.60
2019-02-26T23:42:11.881Z,10.93
2019-02-26T23:47:15.239Z,6.47
2019-02-26T23:52:18.627Z,6.70
2019-02-26T23:57:22.746Z,5.40
